createdAt,value
2023-04-19T00:01:23.380Z,18.63
2023-04-19T00:03:53.545Z,18.40
2023-04-19T00:06:22.082Z,16.67
2023-04-19T00:08:50.418Z,18.53
2023-04-19T00:11:18.837Z,18.27
2023-04-19T00:13:47.064Z,18.67
2023-04-19T00:16:15.485Z,18.47
2023-04-19T00:18:43.983Z,20.03
2023-04-19T00:21:13.663Z,17.77
2023-04-19T00:23:41.955Z,19.63
2023-04-19T00:26:11.664Z,17.60
2023-04-19T00:28:40.690Z,18.80
2023-04-19T00:31:11.000Z,19.63
2023-04-19T00:33:39.323Z,19.57
2023-04-19T00:36:08.022Z,17.40
2023-04-19T00:38:37.675Z,17.43
2023-04-19T00:41:05.989Z,18.07
2023-04-19T00:43:34.373Z,17.80
2023-04-19T00:46:02.969Z,19.67
2023-04-19T00:48:31.984Z,18.83
2023-04-19T00:51:00.415Z,18.03
2023-04-19T00:53:28.792Z,19.33
2023-04-19T00:56:01.083Z,18.87
2023-04-19T00:58:31.579Z,19.23
2023-04-19T01:00:59.995Z,18.03
2023-04-19T01:03:29.432Z,16.80
2023-04-19T01:05:58.102Z,18.40
2023-04-19T01:08:26.304Z,19.10
2023-04-19T01:10:55.608Z,18.77
2023-04-19T01:13:25.266Z,20.10
2023-04-19T01:15:53.555Z,19.53
2023-04-19T01:18:23.985Z,19.40
2023-04-19T01:20:52.323Z,19.03
2023-04-19T01:23:21.985Z,18.87
2023-04-19T01:25:51.126Z,18.20
2023-04-19T01:28:19.396Z,20.53
2023-04-19T01:30:47.698Z,17.57
2023-04-19T01:33:16.901Z,19.77
2023-04-19T01:35:45.129Z,20.70
2023-04-19T01:38:13.423Z,18.93
2023-04-19T01:40:44.890Z,20.40
2023-04-19T01:43:15.162Z,18.43
2023-04-19T01:45:43.488Z,19.57
2023-04-19T01:48:13.616Z,19.77
2023-04-19T01:50:41.924Z,19.37
2023-04-19T01:53:10.181Z,19.60
2023-04-19T01:55:38.575Z,19.07
2023-04-19T01:58:08.679Z,19.60
2023-04-19T02:00:36.992Z,20.50
2023-04-19T02:03:06.120Z,19.97
2023-04-19T02:05:34.434Z,20.27
2023-04-19T02:08:02.995Z,19.77
2023-04-19T02:10:32.639Z,19.37
2023-04-19T02:13:01.433Z,21.40
2023-04-19T02:15:31.172Z,20.60
2023-04-19T02:18:00.650Z,20.40
2023-04-19T02:20:28.959Z,19.17
2023-04-19T02:22:57.175Z,21.07
2023-04-19T02:25:25.465Z,20.43
2023-04-19T02:27:53.805Z,21.50
2023-04-19T02:30:22.361Z,21.43
2023-04-19T02:32:55.002Z,21.77
2023-04-19T02:35:23.538Z,20.97
2023-04-19T02:37:51.811Z,21.33
2023-04-19T02:40:21.152Z,22.10
2023-04-19T02:42:49.669Z,19.83
2023-04-19T02:45:17.955Z,19.43
2023-04-19T02:47:48.918Z,21.20
2023-04-19T02:50:19.029Z,21.27
2023-04-19T02:52:50.909Z,20.10
2023-04-19T02:55:21.106Z,21.23
2023-04-19T02:57:55.202Z,20.63
2023-04-19T03:00:23.692Z,21.17
2023-04-19T03:03:04.631Z,19.50
2023-04-19T03:05:36.037Z,20.63
2023-04-19T03:08:04.536Z,20.20
2023-04-19T03:10:33.300Z,20.33
2023-04-19T03:13:01.747Z,20.27
2023-04-19T03:15:31.272Z,18.57
2023-04-19T03:17:59.587Z,19.63
2023-04-19T03:20:28.109Z,20.07
2023-04-19T03:22:59.033Z,19.77
2023-04-19T03:25:27.804Z,19.37
2023-04-19T03:28:05.837Z,19.40
2023-04-19T03:30:52.971Z,18.97
2023-04-19T03:33:21.312Z,19.43
2023-04-19T03:35:49.909Z,19.43
2023-04-19T03:38:19.565Z,20.60
2023-04-19T03:40:49.147Z,19.43
2023-04-19T03:43:18.969Z,18.97
2023-04-19T03:45:47.439Z,20.50
2023-04-19T03:48:15.806Z,20.60
2023-04-19T03:50:44.225Z,21.10
2023-04-19T03:53:16.047Z,20.17
2023-04-19T03:55:45.898Z,20.30
2023-04-19T03:58:14.154Z,20.77
2023-04-19T04:00:54.518Z,20.17
2023-04-19T04:03:23.032Z,19.23
2023-04-19T04:05:51.470Z,20.33
2023-04-19T04:08:20.158Z,20.30
2023-04-19T04:10:50.591Z,19.83
2023-04-19T04:13:20.486Z,20.83
2023-04-19T04:15:58.645Z,20.23
2023-04-19T04:18:27.152Z,21.53
2023-04-19T04:20:55.591Z,21.57
2023-04-19T04:23:25.429Z,19.17
2023-04-19T04:26:02.605Z,21.27
2023-04-19T04:28:42.440Z,20.67
2023-04-19T04:31:13.067Z,19.97
2023-04-19T04:33:42.793Z,19.90
2023-04-19T04:36:13.647Z,21.17
2023-04-19T04:38:43.276Z,21.17
2023-04-19T04:41:13.206Z,19.33
2023-04-19T04:43:41.510Z,20.13
2023-04-19T04:46:11.031Z,19.77
2023-04-19T04:48:42.979Z,21.10
2023-04-19T04:51:11.367Z,19.60
2023-04-19T04:53:41.072Z,20.20
2023-04-19T04:56:12.186Z,19.87
2023-04-19T04:58:40.736Z,20.40
2023-04-19T05:01:12.287Z,19.83
2023-04-19T05:03:43.013Z,20.67
2023-04-19T05:06:15.931Z,20.73
2023-04-19T05:08:45.205Z,21.37
2023-04-19T05:11:21.445Z,21.17
2023-04-19T05:13:50.014Z,21.40
2023-04-19T05:16:18.505Z,20.23
2023-04-19T05:18:48.458Z,20.27
2023-04-19T05:21:17.177Z,20.93
2023-04-19T05:23:45.779Z,20.37
2023-04-19T05:26:15.894Z,20.63
2023-04-19T05:28:46.504Z,21.73
2023-04-19T05:31:22.917Z,20.10
2023-04-19T05:34:07.646Z,20.60
2023-04-19T05:36:35.983Z,19.93
2023-04-19T05:39:04.392Z,19.33
2023-04-19T05:41:32.652Z,21.50
2023-04-19T05:44:02.236Z,20.50
2023-04-19T05:46:30.817Z,20.20
2023-04-19T05:48:59.453Z,19.93
2023-04-19T05:51:50.322Z,19.40
2023-04-19T05:54:37.056Z,20.67
2023-04-19T05:57:07.101Z,19.33
2023-04-19T05:59:36.859Z,20.13
2023-04-19T06:02:06.176Z,19.07
2023-04-19T06:04:34.745Z,19.20
2023-04-19T06:07:04.525Z,18.63
2023-04-19T06:09:34.480Z,18.10
2023-04-19T06:12:02.727Z,19.07
2023-04-19T06:14:31.443Z,16.47
2023-04-19T06:17:01.305Z,19.13
2023-04-19T06:19:29.511Z,18.53
2023-04-19T06:21:57.721Z,17.10
2023-04-19T06:24:26.179Z,16.40
2023-04-19T06:26:54.741Z,17.00
2023-04-19T06:29:24.237Z,17.43
2023-04-19T06:31:52.752Z,15.40
2023-04-19T06:34:22.534Z,15.47
2023-04-19T06:36:50.836Z,15.37
2023-04-19T06:39:19.179Z,15.87
2023-04-19T06:41:47.493Z,15.80
2023-04-19T06:44:18.467Z,14.60
2023-04-19T06:46:46.930Z,15.43
2023-04-19T06:49:15.602Z,15.77
2023-04-19T06:51:45.488Z,16.13
2023-04-19T06:54:13.798Z,15.67
2023-04-19T06:56:45.553Z,14.97
2023-04-19T06:59:14.753Z,15.47
2023-04-19T07:01:43.300Z,15.83
2023-04-19T07:04:12.479Z,14.53
2023-04-19T07:06:41.241Z,15.20
2023-04-19T07:09:10.876Z,14.90
2023-04-19T07:11:39.111Z,14.60
2023-04-19T07:14:07.426Z,15.23
2023-04-19T07:16:35.957Z,14.33
2023-04-19T07:19:04.244Z,14.30
2023-04-19T07:21:33.573Z,14.67
2023-04-19T07:24:01.846Z,15.40
2023-04-19T07:26:31.659Z,12.87
2023-04-19T07:29:00.043Z,14.10
2023-04-19T07:31:29.244Z,13.80
2023-04-19T07:33:57.602Z,12.77
2023-04-19T07:36:25.886Z,12.87
2023-04-19T07:38:54.223Z,13.47
2023-04-19T07:41:22.532Z,12.83
2023-04-19T07:43:52.120Z,12.57
2023-04-19T07:46:20.464Z,14.17
2023-04-19T07:48:48.775Z,12.50
2023-04-19T07:51:19.260Z,13.20
2023-04-19T07:53:48.653Z,12.20
2023-04-19T07:56:17.002Z,12.10
2023-04-19T07:58:48.610Z,12.13
2023-04-19T08:01:23.448Z,10.97
2023-04-19T08:03:52.079Z,11.87
2023-04-19T08:06:21.709Z,11.97
2023-04-19T08:08:50.237Z,10.73
2023-04-19T08:11:18.562Z,10.20
2023-04-19T08:14:02.694Z,10.90
2023-04-19T08:19:07.518Z,10.23
2023-04-19T08:21:41.288Z,9.53
2023-04-19T08:24:10.116Z,9.27
2023-04-19T08:26:39.062Z,8.37
2023-04-19T08:29:07.498Z,9.60
2023-04-19T08:31:37.444Z,9.03
2023-04-19T08:34:05.750Z,8.77
2023-04-19T08:36:41.002Z,8.77
2023-04-19T08:39:24.592Z,9.10
2023-04-19T08:42:10.365Z,9.27
2023-04-19T08:44:56.252Z,8.23
2023-04-19T08:47:34.455Z,8.63
2023-04-19T08:50:17.514Z,8.50
2023-04-19T08:52:58.589Z,8.43
2023-04-19T08:55:30.435Z,8.60
2023-04-19T08:57:59.343Z,8.67
2023-04-19T09:00:27.673Z,8.93
2023-04-19T09:02:58.755Z,8.97
2023-04-19T09:05:30.250Z,7.93
2023-04-19T09:08:22.684Z,8.65
2023-04-19T09:10:55.198Z,8.40
2023-04-19T09:13:23.655Z,7.03
2023-04-19T09:15:53.671Z,8.13
2023-04-19T09:18:24.921Z,7.87
2023-04-19T09:20:57.236Z,7.93
2023-04-19T09:23:27.429Z,8.02
2023-04-19T09:28:29.646Z,8.47
2023-04-19T09:31:08.418Z,8.20
2023-04-19T09:33:48.523Z,8.33
2023-04-19T09:36:28.792Z,8.63
2023-04-19T09:38:57.246Z,7.70
2023-04-19T09:41:26.981Z,8.18
2023-04-19T09:46:34.428Z,9.40
2023-04-19T09:49:27.889Z,8.45
2023-04-19T09:52:06.877Z,8.13
2023-04-19T09:54:35.299Z,8.40
2023-04-19T09:57:03.842Z,8.77
2023-04-19T09:59:32.578Z,8.88
2023-04-19T10:02:02.127Z,9.20
2023-04-19T10:04:44.035Z,8.10
2023-04-19T10:07:30.112Z,8.48
2023-04-19T10:15:07.057Z,7.20
2023-04-19T10:17:35.984Z,7.82
2023-04-19T10:20:10.778Z,8.23
2023-04-19T10:22:39.837Z,8.07
2023-04-19T10:25:13.002Z,8.55
2023-04-19T10:27:48.714Z,8.82
2023-04-19T10:30:21.549Z,8.38
2023-04-19T10:32:56.383Z,8.88
2023-04-19T10:35:29.437Z,9.27
2023-04-19T10:38:06.204Z,8.90
2023-04-19T10:41:00.739Z,8.60
2023-04-19T10:43:30.500Z,8.15
2023-04-19T10:46:03.454Z,8.05
2023-04-19T10:48:38.168Z,9.18
2023-04-19T10:51:15.602Z,9.68
2023-04-19T10:53:49.018Z,8.35
2023-04-19T10:56:17.914Z,8.38
2023-04-19T10:59:21.447Z,8.73
2023-04-19T11:01:52.831Z,8.35
2023-04-19T11:04:22.957Z,8.18
2023-04-19T11:07:04.257Z,7.90
2023-04-19T11:09:34.662Z,8.45
2023-04-19T11:12:05.459Z,8.30
2023-04-19T11:14:35.604Z,8.75
2023-04-19T11:17:05.872Z,8.02
2023-04-19T11:19:34.216Z,9.43
2023-04-19T11:22:04.615Z,8.88
2023-04-19T11:24:32.996Z,8.80
2023-04-19T11:27:01.264Z,8.80
2023-04-19T11:29:29.557Z,8.38
2023-04-19T11:31:57.851Z,8.25
2023-04-19T11:34:26.093Z,8.18
2023-04-19T11:36:54.444Z,7.53
2023-04-19T11:39:24.173Z,7.75
2023-04-19T11:41:52.421Z,7.13
2023-04-19T11:44:21.540Z,7.68
2023-04-19T11:47:00.343Z,7.30
2023-04-19T11:49:29.991Z,6.30
2023-04-19T11:52:00.584Z,6.18
2023-04-19T11:54:31.035Z,6.63
2023-04-19T11:57:04.721Z,7.28
2023-04-19T11:59:33.847Z,6.00
2023-04-19T12:02:09.828Z,6.88
2023-04-19T12:04:38.884Z,6.63
2023-04-19T12:07:08.251Z,6.03
2023-04-19T12:09:38.960Z,5.65
2023-04-19T12:12:07.399Z,6.15
2023-04-19T12:14:35.673Z,5.70
2023-04-19T12:17:12.148Z,6.28
2023-04-19T12:19:46.238Z,5.65
2023-04-19T12:22:16.754Z,5.05
2023-04-19T12:24:46.544Z,5.60
2023-04-19T12:27:18.777Z,5.28
2023-04-19T12:29:47.190Z,5.32
2023-04-19T12:32:16.115Z,5.10
2023-04-19T12:34:44.765Z,5.25
2023-04-19T12:37:13.040Z,5.20
2023-04-19T12:39:41.309Z,4.90
2023-04-19T12:42:10.951Z,4.90
2023-04-19T12:44:39.382Z,4.45
2023-04-19T12:47:07.909Z,4.80
2023-04-19T12:49:36.402Z,5.15
2023-04-19T12:52:04.662Z,4.10
2023-04-19T12:54:32.929Z,4.32
2023-04-19T12:57:03.410Z,3.92
2023-04-19T12:59:33.484Z,4.30
2023-04-19T13:02:01.984Z,3.88
2023-04-19T13:04:30.561Z,4.35
2023-04-19T13:06:59.118Z,4.40
2023-04-19T13:09:28.523Z,3.80
2023-04-19T13:11:57.784Z,4.55
2023-04-19T13:14:27.466Z,3.70
2023-04-19T13:16:57.125Z,3.78
2023-04-19T13:19:25.597Z,3.88
2023-04-19T13:21:53.913Z,3.15
2023-04-19T13:24:22.232Z,3.63
2023-04-19T13:26:50.657Z,3.40
2023-04-19T13:29:18.969Z,3.38
2023-04-19T13:31:47.721Z,3.30
2023-04-19T13:34:18.927Z,3.70
2023-04-19T13:36:47.473Z,3.25
2023-04-19T13:39:15.917Z,3.20
2023-04-19T13:41:44.182Z,3.38
2023-04-19T13:44:12.462Z,3.40
2023-04-19T13:46:40.721Z,2.92
2023-04-19T13:49:08.971Z,3.05
2023-04-19T13:51:48.838Z,2.67
2023-04-19T13:54:19.801Z,2.92
2023-04-19T13:56:51.394Z,3.97
2023-04-19T13:59:20.901Z,3.05
2023-04-19T14:01:49.256Z,2.75
2023-04-19T14:04:18.180Z,2.80
2023-04-19T14:06:48.006Z,3.08
2023-04-19T14:09:16.700Z,2.60
2023-04-19T14:11:44.965Z,2.63
2023-04-19T14:14:13.262Z,2.53
2023-04-19T14:16:41.573Z,2.78
2023-04-19T14:19:10.173Z,2.65
2023-04-19T14:21:38.455Z,3.22
2023-04-19T14:24:08.866Z,3.58
2023-04-19T14:26:37.242Z,3.45
2023-04-19T14:29:06.585Z,3.30
2023-04-19T14:31:34.923Z,3.50
2023-04-19T14:34:03.666Z,3.28
2023-04-19T14:36:31.906Z,3.45
2023-04-19T14:39:00.239Z,3.40
2023-04-19T14:41:30.299Z,3.28
2023-04-19T14:43:58.754Z,3.50
2023-04-19T14:46:27.067Z,3.53
2023-04-19T14:48:55.348Z,3.58
2023-04-19T14:51:23.603Z,3.42
2023-04-19T14:53:51.848Z,4.20
2023-04-19T14:56:20.201Z,4.18
2023-04-19T14:58:49.810Z,4.75
2023-04-19T15:01:18.073Z,4.00
2023-04-19T15:03:46.626Z,4.30
2023-04-19T15:06:15.377Z,4.40
2023-04-19T15:08:43.918Z,4.90
2023-04-19T15:11:12.220Z,4.22
2023-04-19T15:13:41.410Z,4.22
2023-04-19T15:16:11.259Z,3.88
2023-04-19T15:18:39.545Z,3.40
2023-04-19T15:21:07.973Z,3.50
2023-04-19T15:23:36.315Z,4.80
2023-04-19T15:26:04.749Z,3.03
2023-04-19T15:28:36.092Z,3.50
2023-04-19T15:31:06.182Z,3.70
2023-04-19T15:33:36.937Z,3.00
2023-04-19T15:36:05.818Z,3.10
2023-04-19T15:38:34.266Z,2.97
2023-04-19T15:41:02.564Z,2.83
2023-04-19T15:43:31.540Z,3.45
2023-04-19T15:46:00.323Z,2.88
2023-04-19T15:48:29.773Z,2.70
2023-04-19T15:50:59.475Z,3.53
2023-04-19T15:53:27.759Z,3.05
2023-04-19T15:55:56.263Z,3.22
2023-04-19T15:58:25.151Z,3.35
2023-04-19T16:00:53.731Z,3.05
2023-04-19T16:03:22.397Z,3.42
2023-04-19T16:05:51.788Z,2.75
2023-04-19T16:08:21.433Z,4.30
2023-04-19T16:10:50.618Z,3.05
2023-04-19T16:13:18.966Z,3.30
2023-04-19T16:15:47.402Z,3.25
2023-04-19T16:18:15.652Z,3.35
2023-04-19T16:20:44.112Z,3.20
2023-04-19T16:23:14.465Z,3.17
2023-04-19T16:25:44.264Z,3.20
2023-04-19T16:28:12.588Z,3.38
2023-04-19T16:30:40.843Z,3.30
2023-04-19T16:33:09.325Z,3.03
2023-04-19T16:35:37.641Z,3.33
2023-04-19T16:38:07.021Z,3.47
2023-04-19T16:40:35.394Z,3.33
2023-04-19T16:43:06.403Z,3.70
2023-04-19T16:45:34.805Z,3.70
2023-04-19T16:48:03.146Z,3.58
2023-04-19T16:50:31.511Z,4.43
2023-04-19T16:52:59.749Z,3.88
2023-04-19T16:55:28.122Z,4.18
2023-04-19T16:57:56.348Z,4.30
2023-04-19T17:00:26.016Z,4.03
2023-04-19T17:02:54.433Z,3.90
2023-04-19T17:05:22.825Z,3.78
2023-04-19T17:07:51.630Z,4.47
2023-04-19T17:10:19.894Z,4.65
2023-04-19T17:12:48.725Z,5.45
2023-04-19T17:15:17.177Z,4.85
2023-04-19T17:17:46.827Z,4.10
2023-04-19T17:20:15.484Z,4.20
2023-04-19T17:22:43.884Z,4.22
2023-04-19T17:25:12.356Z,4.32
2023-04-19T17:27:40.870Z,7.47
2023-04-19T17:30:10.340Z,4.70
2023-04-19T17:32:38.747Z,3.83
2023-04-19T17:35:09.457Z,3.88
2023-04-19T17:37:37.882Z,3.30
2023-04-19T17:40:07.477Z,4.10
2023-04-19T17:42:35.687Z,3.38
2023-04-19T17:45:05.945Z,3.70
2023-04-19T17:47:34.333Z,4.30
2023-04-19T17:50:07.214Z,3.57
2023-04-19T17:52:37.496Z,3.80
2023-04-19T17:55:07.284Z,3.90
2023-04-19T17:57:36.199Z,4.03
2023-04-19T18:00:07.796Z,4.00
2023-04-19T18:02:39.502Z,4.63
2023-04-19T18:05:08.643Z,4.05
2023-04-19T18:07:38.356Z,4.40
2023-04-19T18:10:07.676Z,3.90
2023-04-19T18:12:36.001Z,3.72
2023-04-19T18:15:06.079Z,4.17
2023-04-19T18:17:34.486Z,3.73
2023-04-19T18:20:05.096Z,4.00
2023-04-19T18:22:33.372Z,3.47
2023-04-19T18:25:02.993Z,3.70
2023-04-19T18:27:32.430Z,3.93
2023-04-19T18:30:03.758Z,3.80
2023-04-19T18:32:32.797Z,4.28
2023-04-19T18:35:03.183Z,4.10
2023-04-19T18:37:32.098Z,4.10
2023-04-19T18:40:00.487Z,3.93
2023-04-19T18:42:30.302Z,4.50
2023-04-19T18:44:58.786Z,4.03
2023-04-19T18:47:27.745Z,4.60
2023-04-19T18:50:04.458Z,4.50
2023-04-19T18:52:35.441Z,4.67
2023-04-19T18:55:04.244Z,4.13
2023-04-19T18:57:35.406Z,4.47
2023-04-19T19:00:06.701Z,4.40
2023-04-19T19:02:36.960Z,4.53
2023-04-19T19:05:08.213Z,4.27
2023-04-19T19:07:37.699Z,4.03
2023-04-19T19:10:18.500Z,4.63
2023-04-19T19:12:51.175Z,4.60
2023-04-19T19:15:19.684Z,5.07
2023-04-19T19:17:50.445Z,4.43
2023-04-19T19:20:19.839Z,4.43
2023-04-19T19:22:48.355Z,4.40
2023-04-19T19:25:16.867Z,4.40
2023-04-19T19:28:02.988Z,5.40
2023-04-19T19:30:35.717Z,4.40
2023-04-19T19:33:05.044Z,4.53
2023-04-19T19:35:33.744Z,4.27
2023-04-19T19:38:02.221Z,4.00
2023-04-19T19:40:32.552Z,4.73
2023-04-19T19:43:01.636Z,4.67
2023-04-19T19:45:31.145Z,3.90
2023-04-19T19:48:01.335Z,4.00
2023-04-19T19:53:01.850Z,3.60
2023-04-19T19:55:30.743Z,3.53
2023-04-19T20:03:03.348Z,3.40
2023-04-19T20:05:32.126Z,4.23
2023-04-19T20:08:09.884Z,3.30
2023-04-19T20:10:39.497Z,3.40
2023-04-19T20:13:07.857Z,3.90
2023-04-19T20:15:37.707Z,3.57
2023-04-19T20:18:08.328Z,3.10
2023-04-19T20:20:37.421Z,3.90
2023-04-19T20:23:06.179Z,3.60
2023-04-19T20:25:34.464Z,3.63
2023-04-19T20:28:03.485Z,3.37
2023-04-19T20:30:32.046Z,3.97
2023-04-19T20:33:01.265Z,3.60
2023-04-19T20:35:31.478Z,3.67
2023-04-19T20:38:02.827Z,3.47
2023-04-19T20:40:32.275Z,3.80
2023-04-19T20:43:01.000Z,3.83
2023-04-19T20:45:29.943Z,4.00
2023-04-19T20:47:58.669Z,3.43
2023-04-19T20:50:27.376Z,3.83
2023-04-19T20:52:58.246Z,3.70
2023-04-19T20:55:26.614Z,3.90
2023-04-19T20:57:54.856Z,4.10
2023-04-19T21:00:23.389Z,3.70
2023-04-19T21:02:51.805Z,3.90
2023-04-19T21:05:20.264Z,3.53
2023-04-19T21:07:48.548Z,4.23
2023-04-19T21:10:18.463Z,3.63
2023-04-19T21:12:46.742Z,3.73
2023-04-19T21:15:15.154Z,3.57
2023-04-19T21:17:43.444Z,2.87
2023-04-19T21:20:18.073Z,3.53
2023-04-19T21:22:47.516Z,3.47
2023-04-19T21:25:15.945Z,3.50
2023-04-19T21:27:45.573Z,3.47
2023-04-19T21:30:14.516Z,3.33
2023-04-19T21:32:42.791Z,3.60
2023-04-19T21:35:11.545Z,3.20
2023-04-19T21:37:39.925Z,3.27
2023-04-19T21:40:09.200Z,3.20
2023-04-19T21:42:37.657Z,3.23
2023-04-19T21:45:09.011Z,3.77
2023-04-19T21:47:37.386Z,3.87
2023-04-19T21:50:06.293Z,3.20
2023-04-19T21:52:34.513Z,3.13
2023-04-19T21:55:02.930Z,3.50
2023-04-19T21:57:31.310Z,3.10
2023-04-19T21:59:59.551Z,3.17
2023-04-19T22:02:29.429Z,3.60
2023-04-19T22:05:00.434Z,3.30
2023-04-19T22:07:30.340Z,4.23
2023-04-19T22:09:58.743Z,3.43
2023-04-19T22:12:27.288Z,3.60
2023-04-19T22:14:56.042Z,3.10
2023-04-19T22:17:24.476Z,3.37
2023-04-19T22:19:55.010Z,3.80
2023-04-19T22:22:23.440Z,3.90
2023-04-19T22:24:57.027Z,3.60
2023-04-19T22:27:26.554Z,3.30
2023-04-19T22:29:54.839Z,3.53
2023-04-19T22:32:23.208Z,3.73
2023-04-19T22:34:53.068Z,3.63
2023-04-19T22:37:21.383Z,3.97
2023-04-19T22:39:49.689Z,3.50
2023-04-19T22:42:18.162Z,3.27
2023-04-19T22:44:46.572Z,3.60
2023-04-19T22:47:15.212Z,3.90
2023-04-19T22:49:43.649Z,3.70
2023-04-19T22:52:14.574Z,3.53
2023-04-19T22:54:42.942Z,3.87
2023-04-19T22:57:12.031Z,3.63
2023-04-19T22:59:40.388Z,4.00
2023-04-19T23:02:08.780Z,3.93
2023-04-19T23:04:38.075Z,4.10
2023-04-19T23:07:07.033Z,3.97
2023-04-19T23:09:39.444Z,3.80
2023-04-19T23:12:08.360Z,3.93
2023-04-19T23:14:38.609Z,4.03
2023-04-19T23:17:07.364Z,3.43
2023-04-19T23:19:36.609Z,3.87
2023-04-19T23:22:04.934Z,3.80
2023-04-19T23:24:33.181Z,3.40
2023-04-19T23:27:03.450Z,4.40
2023-04-19T23:29:32.032Z,4.07
2023-04-19T23:32:01.824Z,3.57
2023-04-19T23:34:30.069Z,4.10
2023-04-19T23:36:58.298Z,3.87
2023-04-19T23:39:26.864Z,3.93
2023-04-19T23:41:55.345Z,3.80
2023-04-19T23:44:24.905Z,3.93
2023-04-19T23:46:53.425Z,4.00
2023-04-19T23:49:21.814Z,3.87
2023-04-19T23:51:50.409Z,4.03
2023-04-19T23:54:21.306Z,3.60
2023-04-19T23:56:50.690Z,3.40
2023-04-19T23:59:19.827Z,3.80
